sensor_id;sensor_type;location;lat;lon;timestamp;temperature;humidity
11855;DHT22;5987;53.140;8.904;2023-01-29T00:01:15;3.50;99.90
11855;DHT22;5987;53.140;8.904;2023-01-29T00:04:18;3.50;99.90
11855;DHT22;5987;53.140;8.904;2023-01-29T00:07:22;3.50;99.90
11855;DHT22;5987;53.140;8.904;2023-01-29T00:10:26;3.50;99.90
11855;DHT22;5987;53.140;8.904;2023-01-29T00:13:30;3.50;99.90
11855;DHT22;5987;53.140;8.904;2023-01-29T00:16:36;3.50;99.90
11855;DHT22;5987;53.140;8.904;2023-01-29T00:19:40;3.60;99.90
11855;DHT22;5987;53.140;8.904;2023-01-29T00:22:44;3.60;99.90
11855;DHT22;5987;53.140;8.904;2023-01-29T00:25:48;3.60;99.90
11855;DHT22;5987;53.140;8.904;2023-01-29T00:28:52;3.60;99.90
11855;DHT22;5987;53.140;8.904;2023-01-29T00:31:57;3.60;99.90
11855;DHT22;5987;53.140;8.904;2023-01-29T00:35:01;3.60;99.90
11855;DHT22;5987;53.140;8.904;2023-01-29T00:38:04;3.70;99.90
11855;DHT22;5987;53.140;8.904;2023-01-29T00:41:09;3.70;99.90
11855;DHT22;5987;53.140;8.904;2023-01-29T00:44:32;3.70;99.90
11855;DHT22;5987;53.140;8.904;2023-01-29T00:47:54;3.70;99.90
11855;DHT22;5987;53.140;8.904;2023-01-29T00:50:58;3.50;99.90
11855;DHT22;5987;53.140;8.904;2023-01-29T00:54:02;3.50;99.90
11855;DHT22;5987;53.140;8.904;2023-01-29T00:57:07;3.60;99.90
11855;DHT22;5987;53.140;8.904;2023-01-29T01:00:13;3.60;99.90
11855;DHT22;5987;53.140;8.904;2023-01-29T01:03:20;3.60;99.90
11855;DHT22;5987;53.140;8.904;2023-01-29T01:06:24;3.60;99.90
11855;DHT22;5987;53.140;8.904;2023-01-29T01:09:28;3.60;99.90
11855;DHT22;5987;53.140;8.904;2023-01-29T01:12:54;3.60;99.90
11855;DHT22;5987;53.140;8.904;2023-01-29T01:16:00;3.60;99.90
11855;DHT22;5987;53.140;8.904;2023-01-29T01:19:05;3.60;99.90
11855;DHT22;5987;53.140;8.904;2023-01-29T01:22:08;3.60;99.90
11855;DHT22;5987;53.140;8.904;2023-01-29T01:25:13;3.50;99.90
11855;DHT22;5987;53.140;8.904;2023-01-29T01:28:16;3.60;99.90
11855;DHT22;5987;53.140;8.904;2023-01-29T01:31:20;3.60;99.90
11855;DHT22;5987;53.140;8.904;2023-01-29T01:34:25;3.50;99.90
11855;DHT22;5987;53.140;8.904;2023-01-29T01:37:29;3.50;99.90
11855;DHT22;5987;53.140;8.904;2023-01-29T01:40:33;3.50;99.90
11855;DHT22;5987;53.140;8.904;2023-01-29T01:43:50;3.50;99.90
11855;DHT22;5987;53.140;8.904;2023-01-29T01:46:55;3.50;99.90
11855;DHT22;5987;53.140;8.904;2023-01-29T01:50:04;3.50;99.90
11855;DHT22;5987;53.140;8.904;2023-01-29T01:53:13;3.50;99.90
11855;DHT22;5987;53.140;8.904;2023-01-29T01:56:23;3.50;99.90
11855;DHT22;5987;53.140;8.904;2023-01-29T01:59:39;3.40;99.90
11855;DHT22;5987;53.140;8.904;2023-01-29T02:02:45;3.40;99.90
11855;DHT22;5987;53.140;8.904;2023-01-29T02:06:09;3.40;99.90
11855;DHT22;5987;53.140;8.904;2023-01-29T02:09:34;3.40;99.90
11855;DHT22;5987;53.140;8.904;2023-01-29T02:12:43;3.40;99.90
11855;DHT22;5987;53.140;8.904;2023-01-29T02:15:47;3.40;99.90
11855;DHT22;5987;53.140;8.904;2023-01-29T02:18:52;3.50;99.90
11855;DHT22;5987;53.140;8.904;2023-01-29T02:22:36;3.50;99.90
11855;DHT22;5987;53.140;8.904;2023-01-29T02:26:26;3.60;99.90
11855;DHT22;5987;53.140;8.904;2023-01-29T02:29:52;3.60;99.90
11855;DHT22;5987;53.140;8.904;2023-01-29T02:33:10;3.60;99.90
11855;DHT22;5987;53.140;8.904;2023-01-29T02:36:30;3.60;99.90
11855;DHT22;5987;53.140;8.904;2023-01-29T02:39:49;3.60;99.90
11855;DHT22;5987;53.140;8.904;2023-01-29T02:43:06;3.50;99.90
11855;DHT22;5987;53.140;8.904;2023-01-29T02:46:26;3.60;99.90
11855;DHT22;5987;53.140;8.904;2023-01-29T02:49:35;3.60;99.90
11855;DHT22;5987;53.140;8.904;2023-01-29T02:52:54;3.60;99.90
11855;DHT22;5987;53.140;8.904;2023-01-29T02:56:09;3.60;99.90
11855;DHT22;5987;53.140;8.904;2023-01-29T02:59:20;3.70;99.90
11855;DHT22;5987;53.140;8.904;2023-01-29T03:02:32;3.70;99.90
11855;DHT22;5987;53.140;8.904;2023-01-29T03:05:46;3.60;99.90
11855;DHT22;5987;53.140;8.904;2023-01-29T03:09:02;3.60;99.90
11855;DHT22;5987;53.140;8.904;2023-01-29T03:12:12;3.50;99.90
11855;DHT22;5987;53.140;8.904;2023-01-29T03:15:33;3.40;99.90
11855;DHT22;5987;53.140;8.904;2023-01-29T03:18:48;3.40;99.90
11855;DHT22;5987;53.140;8.904;2023-01-29T03:21:58;3.40;99.90
11855;DHT22;5987;53.140;8.904;2023-01-29T03:25:07;3.30;99.90
11855;DHT22;5987;53.140;8.904;2023-01-29T03:28:31;3.30;99.90
11855;DHT22;5987;53.140;8.904;2023-01-29T03:31:55;3.20;99.90
11855;DHT22;5987;53.140;8.904;2023-01-29T03:35:10;3.20;99.90
11855;DHT22;5987;53.140;8.904;2023-01-29T03:38:22;3.20;99.90
11855;DHT22;5987;53.140;8.904;2023-01-29T03:41:33;3.20;99.90
11855;DHT22;5987;53.140;8.904;2023-01-29T03:44:47;3.10;99.90
11855;DHT22;5987;53.140;8.904;2023-01-29T03:48:03;3.10;99.90
11855;DHT22;5987;53.140;8.904;2023-01-29T03:51:23;3.10;99.90
11855;DHT22;5987;53.140;8.904;2023-01-29T03:54:38;3.10;99.90
11855;DHT22;5987;53.140;8.904;2023-01-29T03:57:56;3.10;99.90
11855;DHT22;5987;53.140;8.904;2023-01-29T04:01:07;3.10;99.90
11855;DHT22;5987;53.140;8.904;2023-01-29T04:04:21;3.00;99.90
11855;DHT22;5987;53.140;8.904;2023-01-29T04:07:30;2.90;99.90
11855;DHT22;5987;53.140;8.904;2023-01-29T04:10:38;3.00;99.90
11855;DHT22;5987;53.140;8.904;2023-01-29T04:13:45;3.00;99.90
11855;DHT22;5987;53.140;8.904;2023-01-29T04:16:52;3.00;99.90
11855;DHT22;5987;53.140;8.904;2023-01-29T04:20:00;2.90;99.90
11855;DHT22;5987;53.140;8.904;2023-01-29T04:23:16;2.90;99.90
11855;DHT22;5987;53.140;8.904;2023-01-29T04:26:38;2.90;99.90
11855;DHT22;5987;53.140;8.904;2023-01-29T04:30:00;2.90;99.90
11855;DHT22;5987;53.140;8.904;2023-01-29T04:33:27;2.90;99.90
11855;DHT22;5987;53.140;8.904;2023-01-29T04:36:43;2.90;99.90
11855;DHT22;5987;53.140;8.904;2023-01-29T04:40:02;2.90;99.90
11855;DHT22;5987;53.140;8.904;2023-01-29T04:43:22;3.00;99.90
11855;DHT22;5987;53.140;8.904;2023-01-29T04:46:34;2.90;99.90
11855;DHT22;5987;53.140;8.904;2023-01-29T04:49:55;2.90;99.90
11855;DHT22;5987;53.140;8.904;2023-01-29T04:53:11;2.90;99.90
11855;DHT22;5987;53.140;8.904;2023-01-29T04:56:25;2.90;99.90
11855;DHT22;5987;53.140;8.904;2023-01-29T04:59:41;2.80;99.90
11855;DHT22;5987;53.140;8.904;2023-01-29T05:02:50;2.90;99.90
11855;DHT22;5987;53.140;8.904;2023-01-29T05:05:57;2.90;99.90
11855;DHT22;5987;53.140;8.904;2023-01-29T05:09:04;3.00;99.90
11855;DHT22;5987;53.140;8.904;2023-01-29T05:12:11;3.00;99.90
11855;DHT22;5987;53.140;8.904;2023-01-29T05:15:19;2.90;99.90
11855;DHT22;5987;53.140;8.904;2023-01-29T05:18:27;3.00;99.90
11855;DHT22;5987;53.140;8.904;2023-01-29T05:21:31;3.00;99.90
11855;DHT22;5987;53.140;8.904;2023-01-29T05:24:35;3.00;99.90
11855;DHT22;5987;53.140;8.904;2023-01-29T05:27:41;3.10;99.90
11855;DHT22;5987;53.140;8.904;2023-01-29T05:31:02;3.10;99.90
11855;DHT22;5987;53.140;8.904;2023-01-29T05:34:06;3.20;99.90
11855;DHT22;5987;53.140;8.904;2023-01-29T05:37:09;3.20;99.90
11855;DHT22;5987;53.140;8.904;2023-01-29T05:40:13;3.20;99.90
11855;DHT22;5987;53.140;8.904;2023-01-29T05:43:20;3.20;99.90
11855;DHT22;5987;53.140;8.904;2023-01-29T05:46:25;3.20;99.90
11855;DHT22;5987;53.140;8.904;2023-01-29T05:49:29;3.20;99.90
11855;DHT22;5987;53.140;8.904;2023-01-29T05:52:33;3.30;99.90
11855;DHT22;5987;53.140;8.904;2023-01-29T05:55:36;3.30;99.90
11855;DHT22;5987;53.140;8.904;2023-01-29T05:58:41;3.30;99.90
11855;DHT22;5987;53.140;8.904;2023-01-29T06:01:45;3.30;99.90
11855;DHT22;5987;53.140;8.904;2023-01-29T06:04:50;3.30;99.90
11855;DHT22;5987;53.140;8.904;2023-01-29T06:07:54;3.40;99.90
11855;DHT22;5987;53.140;8.904;2023-01-29T06:10:57;3.40;99.90
11855;DHT22;5987;53.140;8.904;2023-01-29T06:14:03;3.30;99.90
11855;DHT22;5987;53.140;8.904;2023-01-29T06:17:07;3.40;99.90
11855;DHT22;5987;53.140;8.904;2023-01-29T06:20:11;3.30;99.90
11855;DHT22;5987;53.140;8.904;2023-01-29T06:23:16;3.30;99.90
11855;DHT22;5987;53.140;8.904;2023-01-29T06:26:20;3.40;99.90
11855;DHT22;5987;53.140;8.904;2023-01-29T06:29:25;3.40;99.90
11855;DHT22;5987;53.140;8.904;2023-01-29T06:32:29;3.40;99.90
11855;DHT22;5987;53.140;8.904;2023-01-29T06:35:32;3.40;99.90
11855;DHT22;5987;53.140;8.904;2023-01-29T06:38:36;3.50;99.90
11855;DHT22;5987;53.140;8.904;2023-01-29T06:41:40;3.40;99.90
11855;DHT22;5987;53.140;8.904;2023-01-29T06:44:45;3.40;99.90
11855;DHT22;5987;53.140;8.904;2023-01-29T06:47:48;3.40;99.90
11855;DHT22;5987;53.140;8.904;2023-01-29T06:50:52;3.50;99.90
11855;DHT22;5987;53.140;8.904;2023-01-29T06:53:56;3.40;99.90
11855;DHT22;5987;53.140;8.904;2023-01-29T06:57:00;3.50;99.90
11855;DHT22;5987;53.140;8.904;2023-01-29T07:00:06;3.50;99.90
11855;DHT22;5987;53.140;8.904;2023-01-29T07:03:12;3.50;99.90
11855;DHT22;5987;53.140;8.904;2023-01-29T07:06:16;3.50;99.90
11855;DHT22;5987;53.140;8.904;2023-01-29T07:09:20;3.50;99.90
11855;DHT22;5987;53.140;8.904;2023-01-29T07:12:23;3.50;99.90
11855;DHT22;5987;53.140;8.904;2023-01-29T07:15:28;3.60;99.90
11855;DHT22;5987;53.140;8.904;2023-01-29T07:18:32;3.60;99.90
11855;DHT22;5987;53.140;8.904;2023-01-29T07:21:36;3.60;99.90
11855;DHT22;5987;53.140;8.904;2023-01-29T07:24:41;3.60;99.90
11855;DHT22;5987;53.140;8.904;2023-01-29T07:27:45;3.60;99.90
11855;DHT22;5987;53.140;8.904;2023-01-29T07:30:55;3.70;99.90
11855;DHT22;5987;53.140;8.904;2023-01-29T07:33:59;3.70;99.90
11855;DHT22;5987;53.140;8.904;2023-01-29T07:37:03;3.70;99.90
11855;DHT22;5987;53.140;8.904;2023-01-29T07:40:08;3.70;99.90
11855;DHT22;5987;53.140;8.904;2023-01-29T07:43:14;3.60;99.90
11855;DHT22;5987;53.140;8.904;2023-01-29T07:46:19;3.60;99.90
11855;DHT22;5987;53.140;8.904;2023-01-29T07:49:23;3.60;99.90
11855;DHT22;5987;53.140;8.904;2023-01-29T07:52:28;3.60;99.90
11855;DHT22;5987;53.140;8.904;2023-01-29T07:55:33;3.60;99.90
11855;DHT22;5987;53.140;8.904;2023-01-29T07:58:46;3.70;99.90
11855;DHT22;5987;53.140;8.904;2023-01-29T08:01:52;3.70;99.90
11855;DHT22;5987;53.140;8.904;2023-01-29T08:04:55;3.70;99.90
11855;DHT22;5987;53.140;8.904;2023-01-29T08:07:59;3.70;99.90
11855;DHT22;5987;53.140;8.904;2023-01-29T08:11:08;3.80;99.90
11855;DHT22;5987;53.140;8.904;2023-01-29T08:14:12;3.80;99.90
11855;DHT22;5987;53.140;8.904;2023-01-29T08:17:17;3.90;99.90
11855;DHT22;5987;53.140;8.904;2023-01-29T08:20:21;3.90;99.90
11855;DHT22;5987;53.140;8.904;2023-01-29T08:23:25;3.90;99.90
11855;DHT22;5987;53.140;8.904;2023-01-29T08:26:29;3.90;99.90
11855;DHT22;5987;53.140;8.904;2023-01-29T08:29:33;3.90;99.90
11855;DHT22;5987;53.140;8.904;2023-01-29T08:32:38;3.90;99.90
11855;DHT22;5987;53.140;8.904;2023-01-29T08:35:42;4.00;99.90
11855;DHT22;5987;53.140;8.904;2023-01-29T08:38:46;4.10;99.90
11855;DHT22;5987;53.140;8.904;2023-01-29T08:41:50;4.20;99.90
11855;DHT22;5987;53.140;8.904;2023-01-29T08:44:53;4.20;99.90
11855;DHT22;5987;53.140;8.904;2023-01-29T08:47:58;4.20;99.90
11855;DHT22;5987;53.140;8.904;2023-01-29T08:51:02;4.30;99.90
11855;DHT22;5987;53.140;8.904;2023-01-29T08:54:06;4.30;99.90
11855;DHT22;5987;53.140;8.904;2023-01-29T08:57:10;4.30;99.90
11855;DHT22;5987;53.140;8.904;2023-01-29T09:00:14;4.30;99.90
11855;DHT22;5987;53.140;8.904;2023-01-29T09:03:20;4.30;99.90
11855;DHT22;5987;53.140;8.904;2023-01-29T09:06:24;4.30;99.90
11855;DHT22;5987;53.140;8.904;2023-01-29T09:09:28;4.30;99.90
11855;DHT22;5987;53.140;8.904;2023-01-29T09:12:32;4.30;99.90
11855;DHT22;5987;53.140;8.904;2023-01-29T09:15:35;4.20;99.90
11855;DHT22;5987;53.140;8.904;2023-01-29T09:18:40;4.30;99.90
11855;DHT22;5987;53.140;8.904;2023-01-29T09:21:44;4.30;99.90
11855;DHT22;5987;53.140;8.904;2023-01-29T09:24:48;4.40;99.90
11855;DHT22;5987;53.140;8.904;2023-01-29T09:27:53;4.50;99.90
11855;DHT22;5987;53.140;8.904;2023-01-29T09:31:00;4.50;99.90
11855;DHT22;5987;53.140;8.904;2023-01-29T09:34:06;4.50;99.90
11855;DHT22;5987;53.140;8.904;2023-01-29T09:37:09;4.50;99.90
11855;DHT22;5987;53.140;8.904;2023-01-29T09:40:19;4.50;99.90
11855;DHT22;5987;53.140;8.904;2023-01-29T09:43:38;4.60;99.90
11855;DHT22;5987;53.140;8.904;2023-01-29T09:46:49;4.60;99.90
11855;DHT22;5987;53.140;8.904;2023-01-29T09:50:00;4.60;99.90
11855;DHT22;5987;53.140;8.904;2023-01-29T09:53:16;4.60;99.90
11855;DHT22;5987;53.140;8.904;2023-01-29T09:56:22;4.60;99.90
11855;DHT22;5987;53.140;8.904;2023-01-29T09:59:31;4.60;99.90
11855;DHT22;5987;53.140;8.904;2023-01-29T10:02:50;4.60;99.90
11855;DHT22;5987;53.140;8.904;2023-01-29T10:06:24;4.60;99.90
11855;DHT22;5987;53.140;8.904;2023-01-29T10:09:57;4.60;99.90
11855;DHT22;5987;53.140;8.904;2023-01-29T10:13:14;4.60;99.90
11855;DHT22;5987;53.140;8.904;2023-01-29T10:16:37;4.60;99.90
11855;DHT22;5987;53.140;8.904;2023-01-29T10:20:09;4.60;99.90
11855;DHT22;5987;53.140;8.904;2023-01-29T10:23:32;4.70;99.90
11855;DHT22;5987;53.140;8.904;2023-01-29T10:26:39;4.80;99.90
11855;DHT22;5987;53.140;8.904;2023-01-29T10:29:45;4.80;99.90
11855;DHT22;5987;53.140;8.904;2023-01-29T10:32:54;4.80;99.90
11855;DHT22;5987;53.140;8.904;2023-01-29T10:36:05;4.80;99.90
11855;DHT22;5987;53.140;8.904;2023-01-29T10:39:17;4.80;99.90
11855;DHT22;5987;53.140;8.904;2023-01-29T10:42:27;4.80;99.90
11855;DHT22;5987;53.140;8.904;2023-01-29T10:45:41;4.90;99.90
11855;DHT22;5987;53.140;8.904;2023-01-29T10:48:56;5.00;99.90
11855;DHT22;5987;53.140;8.904;2023-01-29T10:52:14;4.90;99.90
11855;DHT22;5987;53.140;8.904;2023-01-29T10:55:40;5.00;99.90
11855;DHT22;5987;53.140;8.904;2023-01-29T10:58:57;5.00;99.90
11855;DHT22;5987;53.140;8.904;2023-01-29T11:02:14;5.00;99.90
11855;DHT22;5987;53.140;8.904;2023-01-29T11:05:25;5.20;99.90
11855;DHT22;5987;53.140;8.904;2023-01-29T11:08:42;5.20;99.90
11855;DHT22;5987;53.140;8.904;2023-01-29T11:11:55;5.20;99.90
11855;DHT22;5987;53.140;8.904;2023-01-29T11:15:05;5.20;99.90
11855;DHT22;5987;53.140;8.904;2023-01-29T11:18:18;5.20;99.90
11855;DHT22;5987;53.140;8.904;2023-01-29T11:21:23;5.30;99.90
11855;DHT22;5987;53.140;8.904;2023-01-29T11:24:27;5.40;99.90
11855;DHT22;5987;53.140;8.904;2023-01-29T11:27:41;5.40;99.90
11855;DHT22;5987;53.140;8.904;2023-01-29T11:30:47;5.50;99.90
11855;DHT22;5987;53.140;8.904;2023-01-29T11:34:01;5.50;99.90
11855;DHT22;5987;53.140;8.904;2023-01-29T11:37:15;5.50;99.90
11855;DHT22;5987;53.140;8.904;2023-01-29T11:40:35;5.50;99.90
11855;DHT22;5987;53.140;8.904;2023-01-29T11:43:43;5.50;99.90
11855;DHT22;5987;53.140;8.904;2023-01-29T11:46:48;5.40;99.90
11855;DHT22;5987;53.140;8.904;2023-01-29T11:49:53;5.40;99.90
11855;DHT22;5987;53.140;8.904;2023-01-29T11:52:59;5.30;99.90
11855;DHT22;5987;53.140;8.904;2023-01-29T11:56:15;5.40;99.90
11855;DHT22;5987;53.140;8.904;2023-01-29T11:59:36;5.40;99.90
11855;DHT22;5987;53.140;8.904;2023-01-29T12:02:47;5.70;99.90
11855;DHT22;5987;53.140;8.904;2023-01-29T12:05:57;5.40;99.90
11855;DHT22;5987;53.140;8.904;2023-01-29T12:09:09;5.40;99.90
11855;DHT22;5987;53.140;8.904;2023-01-29T12:12:27;5.40;99.90
11855;DHT22;5987;53.140;8.904;2023-01-29T12:15:40;5.40;99.90
11855;DHT22;5987;53.140;8.904;2023-01-29T12:18:49;5.40;99.90
11855;DHT22;5987;53.140;8.904;2023-01-29T12:22:00;5.50;99.90
11855;DHT22;5987;53.140;8.904;2023-01-29T12:25:20;5.50;99.90
11855;DHT22;5987;53.140;8.904;2023-01-29T12:28:39;5.40;99.90
11855;DHT22;5987;53.140;8.904;2023-01-29T12:31:58;5.60;99.90
11855;DHT22;5987;53.140;8.904;2023-01-29T12:35:15;5.60;99.90
11855;DHT22;5987;53.140;8.904;2023-01-29T12:38:24;5.60;99.90
11855;DHT22;5987;53.140;8.904;2023-01-29T12:41:32;5.50;99.90
11855;DHT22;5987;53.140;8.904;2023-01-29T12:44:44;5.40;99.90
11855;DHT22;5987;53.140;8.904;2023-01-29T12:47:55;5.40;99.90
11855;DHT22;5987;53.140;8.904;2023-01-29T12:51:05;5.50;99.90
11855;DHT22;5987;53.140;8.904;2023-01-29T12:54:16;5.50;99.90
11855;DHT22;5987;53.140;8.904;2023-01-29T12:57:35;5.50;99.90
11855;DHT22;5987;53.140;8.904;2023-01-29T13:00:47;5.50;99.90
11855;DHT22;5987;53.140;8.904;2023-01-29T13:03:58;5.40;99.90
11855;DHT22;5987;53.140;8.904;2023-01-29T13:07:12;5.40;99.90
11855;DHT22;5987;53.140;8.904;2023-01-29T13:10:24;5.40;99.90
11855;DHT22;5987;53.140;8.904;2023-01-29T13:13:33;5.30;99.90
11855;DHT22;5987;53.140;8.904;2023-01-29T13:16:48;5.30;99.90
11855;DHT22;5987;53.140;8.904;2023-01-29T13:20:02;5.40;99.90
11855;DHT22;5987;53.140;8.904;2023-01-29T13:23:18;5.40;99.90
11855;DHT22;5987;53.140;8.904;2023-01-29T13:26:24;5.40;99.90
11855;DHT22;5987;53.140;8.904;2023-01-29T13:29:30;5.30;99.90
11855;DHT22;5987;53.140;8.904;2023-01-29T13:32:35;5.40;99.90
11855;DHT22;5987;53.140;8.904;2023-01-29T13:35:42;5.40;99.90
11855;DHT22;5987;53.140;8.904;2023-01-29T13:38:54;5.50;99.90
11855;DHT22;5987;53.140;8.904;2023-01-29T13:42:14;5.40;99.90
11855;DHT22;5987;53.140;8.904;2023-01-29T13:45:23;5.30;99.90
11855;DHT22;5987;53.140;8.904;2023-01-29T13:48:31;5.30;99.90
11855;DHT22;5987;53.140;8.904;2023-01-29T13:51:42;5.30;99.90
11855;DHT22;5987;53.140;8.904;2023-01-29T13:54:51;5.30;99.90
11855;DHT22;5987;53.140;8.904;2023-01-29T13:57:59;5.20;99.90
11855;DHT22;5987;53.140;8.904;2023-01-29T14:01:04;5.10;99.90
11855;DHT22;5987;53.140;8.904;2023-01-29T14:04:22;5.10;99.90
11855;DHT22;5987;53.140;8.904;2023-01-29T14:07:50;5.10;99.90
11855;DHT22;5987;53.140;8.904;2023-01-29T14:11:31;5.10;99.90
11855;DHT22;5987;53.140;8.904;2023-01-29T14:14:58;5.10;99.90
11855;DHT22;5987;53.140;8.904;2023-01-29T14:18:24;5.10;99.90
11855;DHT22;5987;53.140;8.904;2023-01-29T14:21:31;5.10;99.90
11855;DHT22;5987;53.140;8.904;2023-01-29T14:24:42;5.00;99.90
11855;DHT22;5987;53.140;8.904;2023-01-29T14:27:46;5.00;99.90
11855;DHT22;5987;53.140;8.904;2023-01-29T14:30:51;5.00;99.90
11855;DHT22;5987;53.140;8.904;2023-01-29T14:34:00;4.90;99.90
11855;DHT22;5987;53.140;8.904;2023-01-29T14:37:19;4.90;99.90
11855;DHT22;5987;53.140;8.904;2023-01-29T14:40:32;4.90;99.90
11855;DHT22;5987;53.140;8.904;2023-01-29T14:43:38;4.90;99.90
11855;DHT22;5987;53.140;8.904;2023-01-29T14:46:43;4.80;99.90
11855;DHT22;5987;53.140;8.904;2023-01-29T14:49:51;4.80;99.90
11855;DHT22;5987;53.140;8.904;2023-01-29T14:53:00;4.80;99.90
11855;DHT22;5987;53.140;8.904;2023-01-29T14:56:14;4.80;99.90
11855;DHT22;5987;53.140;8.904;2023-01-29T14:59:33;4.80;99.90
11855;DHT22;5987;53.140;8.904;2023-01-29T15:02:42;4.90;99.90
11855;DHT22;5987;53.140;8.904;2023-01-29T15:05:48;4.90;99.90
11855;DHT22;5987;53.140;8.904;2023-01-29T15:09:02;4.90;99.90
11855;DHT22;5987;53.140;8.904;2023-01-29T15:12:23;4.80;99.90
11855;DHT22;5987;53.140;8.904;2023-01-29T15:15:34;4.60;99.90
11855;DHT22;5987;53.140;8.904;2023-01-29T15:18:42;4.50;99.90
11855;DHT22;5987;53.140;8.904;2023-01-29T15:22:04;4.50;99.90
11855;DHT22;5987;53.140;8.904;2023-01-29T15:25:13;4.60;99.90
11855;DHT22;5987;53.140;8.904;2023-01-29T15:28:22;4.50;99.90
11855;DHT22;5987;53.140;8.904;2023-01-29T15:31:27;4.40;99.90
11855;DHT22;5987;53.140;8.904;2023-01-29T15:34:32;4.40;99.90
11855;DHT22;5987;53.140;8.904;2023-01-29T15:37:38;4.40;99.90
11855;DHT22;5987;53.140;8.904;2023-01-29T15:40:50;4.40;99.90
11855;DHT22;5987;53.140;8.904;2023-01-29T15:43:57;4.40;99.90
11855;DHT22;5987;53.140;8.904;2023-01-29T15:47:03;4.30;99.90
11855;DHT22;5987;53.140;8.904;2023-01-29T15:50:10;4.20;99.90
11855;DHT22;5987;53.140;8.904;2023-01-29T15:53:19;4.20;99.90
11855;DHT22;5987;53.140;8.904;2023-01-29T15:56:29;4.10;99.90
11855;DHT22;5987;53.140;8.904;2023-01-29T15:59:42;4.10;99.90
11855;DHT22;5987;53.140;8.904;2023-01-29T16:02:52;4.00;99.90
11855;DHT22;5987;53.140;8.904;2023-01-29T16:05:57;4.10;99.90
11855;DHT22;5987;53.140;8.904;2023-01-29T16:09:04;4.10;99.90
11855;DHT22;5987;53.140;8.904;2023-01-29T16:12:11;4.00;99.90
11855;DHT22;5987;53.140;8.904;2023-01-29T16:15:32;4.00;99.90
11855;DHT22;5987;53.140;8.904;2023-01-29T16:18:38;3.90;99.90
11855;DHT22;5987;53.140;8.904;2023-01-29T16:22:02;3.80;99.90
11855;DHT22;5987;53.140;8.904;2023-01-29T16:25:13;3.80;99.90
11855;DHT22;5987;53.140;8.904;2023-01-29T16:28:18;3.80;99.90
11855;DHT22;5987;53.140;8.904;2023-01-29T16:31:26;3.80;99.90
11855;DHT22;5987;53.140;8.904;2023-01-29T16:34:35;3.70;99.90
11855;DHT22;5987;53.140;8.904;2023-01-29T16:37:40;3.80;99.90
11855;DHT22;5987;53.140;8.904;2023-01-29T16:41:05;3.80;99.90
11855;DHT22;5987;53.140;8.904;2023-01-29T16:44:33;3.80;99.90
11855;DHT22;5987;53.140;8.904;2023-01-29T16:47:39;3.80;99.90
11855;DHT22;5987;53.140;8.904;2023-01-29T16:50:43;3.80;99.90
11855;DHT22;5987;53.140;8.904;2023-01-29T16:53:58;3.70;99.90
11855;DHT22;5987;53.140;8.904;2023-01-29T16:57:03;3.80;99.90
11855;DHT22;5987;53.140;8.904;2023-01-29T17:00:17;3.80;99.90
11855;DHT22;5987;53.140;8.904;2023-01-29T17:03:25;3.80;99.90
11855;DHT22;5987;53.140;8.904;2023-01-29T17:06:31;3.80;99.90
11855;DHT22;5987;53.140;8.904;2023-01-29T17:09:36;3.80;99.90
11855;DHT22;5987;53.140;8.904;2023-01-29T17:12:41;3.80;99.90
11855;DHT22;5987;53.140;8.904;2023-01-29T17:15:58;3.80;99.90
11855;DHT22;5987;53.140;8.904;2023-01-29T17:19:16;3.70;99.90
11855;DHT22;5987;53.140;8.904;2023-01-29T17:22:22;3.70;99.90
11855;DHT22;5987;53.140;8.904;2023-01-29T17:25:27;3.70;99.90
11855;DHT22;5987;53.140;8.904;2023-01-29T17:28:32;3.70;99.90
11855;DHT22;5987;53.140;8.904;2023-01-29T17:31:36;3.60;99.90
11855;DHT22;5987;53.140;8.904;2023-01-29T17:34:42;3.60;99.90
11855;DHT22;5987;53.140;8.904;2023-01-29T17:37:46;3.60;99.90
11855;DHT22;5987;53.140;8.904;2023-01-29T17:40:53;3.60;99.90
11855;DHT22;5987;53.140;8.904;2023-01-29T17:43:59;3.60;99.90
11855;DHT22;5987;53.140;8.904;2023-01-29T17:47:03;3.50;99.90
11855;DHT22;5987;53.140;8.904;2023-01-29T17:50:17;3.40;99.90
11855;DHT22;5987;53.140;8.904;2023-01-29T17:53:25;3.50;99.90
11855;DHT22;5987;53.140;8.904;2023-01-29T17:56:45;3.50;99.90
11855;DHT22;5987;53.140;8.904;2023-01-29T17:59:50;3.50;99.90
11855;DHT22;5987;53.140;8.904;2023-01-29T18:02:54;3.50;99.90
11855;DHT22;5987;53.140;8.904;2023-01-29T18:06:06;3.50;99.90
11855;DHT22;5987;53.140;8.904;2023-01-29T18:09:12;3.50;99.90
11855;DHT22;5987;53.140;8.904;2023-01-29T18:12:16;3.50;99.90
11855;DHT22;5987;53.140;8.904;2023-01-29T18:15:20;3.40;99.90
11855;DHT22;5987;53.140;8.904;2023-01-29T18:18:25;3.40;99.90
11855;DHT22;5987;53.140;8.904;2023-01-29T18:21:31;3.50;99.90
11855;DHT22;5987;53.140;8.904;2023-01-29T18:24:35;3.50;99.90
11855;DHT22;5987;53.140;8.904;2023-01-29T18:27:39;3.60;99.90
11855;DHT22;5987;53.140;8.904;2023-01-29T18:30:43;3.60;99.90
11855;DHT22;5987;53.140;8.904;2023-01-29T18:33:48;3.50;99.90
11855;DHT22;5987;53.140;8.904;2023-01-29T18:36:54;3.50;99.90
11855;DHT22;5987;53.140;8.904;2023-01-29T18:39:58;3.50;99.90
11855;DHT22;5987;53.140;8.904;2023-01-29T18:43:03;3.60;99.90
11855;DHT22;5987;53.140;8.904;2023-01-29T18:46:07;3.60;99.90
11855;DHT22;5987;53.140;8.904;2023-01-29T18:49:12;3.60;99.90
11855;DHT22;5987;53.140;8.904;2023-01-29T18:52:17;3.60;99.90
11855;DHT22;5987;53.140;8.904;2023-01-29T18:55:22;3.70;99.90
11855;DHT22;5987;53.140;8.904;2023-01-29T18:58:27;3.70;99.90
11855;DHT22;5987;53.140;8.904;2023-01-29T19:01:37;3.70;99.90
11855;DHT22;5987;53.140;8.904;2023-01-29T19:04:41;3.60;99.90
11855;DHT22;5987;53.140;8.904;2023-01-29T19:07:47;3.70;99.90
11855;DHT22;5987;53.140;8.904;2023-01-29T19:10:51;3.70;99.90
11855;DHT22;5987;53.140;8.904;2023-01-29T19:13:55;3.60;99.90
11855;DHT22;5987;53.140;8.904;2023-01-29T19:16:59;3.60;99.90
11855;DHT22;5987;53.140;8.904;2023-01-29T19:20:04;3.70;99.90
11855;DHT22;5987;53.140;8.904;2023-01-29T19:23:11;3.70;99.90
11855;DHT22;5987;53.140;8.904;2023-01-29T19:26:16;3.70;99.90
11855;DHT22;5987;53.140;8.904;2023-01-29T19:29:20;3.70;99.90
11855;DHT22;5987;53.140;8.904;2023-01-29T19:32:24;3.70;99.90
11855;DHT22;5987;53.140;8.904;2023-01-29T19:35:29;3.70;99.90
11855;DHT22;5987;53.140;8.904;2023-01-29T19:38:35;3.70;99.90
11855;DHT22;5987;53.140;8.904;2023-01-29T19:41:40;3.70;99.90
11855;DHT22;5987;53.140;8.904;2023-01-29T19:44:44;3.70;99.90
11855;DHT22;5987;53.140;8.904;2023-01-29T19:47:48;3.80;99.90
11855;DHT22;5987;53.140;8.904;2023-01-29T19:50:53;3.80;99.90
11855;DHT22;5987;53.140;8.904;2023-01-29T19:53:59;3.90;99.90
11855;DHT22;5987;53.140;8.904;2023-01-29T19:57:03;3.80;99.90
11855;DHT22;5987;53.140;8.904;2023-01-29T20:00:09;3.80;99.90
11855;DHT22;5987;53.140;8.904;2023-01-29T20:03:15;3.90;99.90
11855;DHT22;5987;53.140;8.904;2023-01-29T20:06:23;3.90;99.90
11855;DHT22;5987;53.140;8.904;2023-01-29T20:09:29;3.90;99.90
11855;DHT22;5987;53.140;8.904;2023-01-29T20:12:32;4.00;99.90
11855;DHT22;5987;53.140;8.904;2023-01-29T20:15:44;4.00;99.90
11855;DHT22;5987;53.140;8.904;2023-01-29T20:18:47;4.00;99.90
11855;DHT22;5987;53.140;8.904;2023-01-29T20:21:51;4.00;99.90
11855;DHT22;5987;53.140;8.904;2023-01-29T20:24:57;4.00;99.90
11855;DHT22;5987;53.140;8.904;2023-01-29T20:28:00;4.10;99.90
11855;DHT22;5987;53.140;8.904;2023-01-29T20:31:05;4.00;99.90
11855;DHT22;5987;53.140;8.904;2023-01-29T20:34:10;4.00;99.90
11855;DHT22;5987;53.140;8.904;2023-01-29T20:37:13;4.00;99.90